Yevpatoriya, Ukraine
Current Conditions -  °F | °C
As of 6:00 PM on Thursday 30 Oct 2014 (Local Time) from URFF Reporting Station
Haze Haze  
Wind Chill: 34°   Ceiling: 400
Heat Index: 43°   Visibility: 3mi
Dew Point: 41°   Wind: 20mph
Humidity: 93%   Direction: 70°ENE
Pressure: 30.03"   Gusts: NA
Location:  45.2°N, 33.36°E
Report Text: URFF 301500Z 07009MPS 4900 BR OVC004 06/05 Q1017 01010065 TEMPO0700 FG OVC002
Loading
Personal Weather Stations






























Interactive Weather Map
Tropical Storm Tracking
New forecast layout! Learn more

10-Day Weather Forecast

Advertisements
Track Severe Weather on mobile